createdAt,value
2017-09-23T00:00:22.752Z,51.9
2017-09-23T00:02:55.172Z,51.8
2017-09-23T00:03:57.303Z,51.8
2017-09-23T00:04:58.757Z,51.8
2017-09-23T00:06:00.883Z,51.7
2017-09-23T00:07:02.673Z,52
2017-09-23T00:08:03.778Z,52.1
2017-09-23T00:09:05.236Z,51.9
2017-09-23T00:10:07.030Z,52.2
2017-09-23T00:11:08.823Z,51.9
2017-09-23T00:12:10.633Z,51.8
2017-09-23T00:13:12.760Z,51.6
2017-09-23T00:14:14.554Z,51.8
2017-09-23T00:15:16.325Z,51.9
2017-09-23T00:16:18.117Z,51.9
2017-09-23T00:17:19.889Z,51.8
2017-09-23T00:18:22.014Z,51.6
2017-09-23T00:19:23.451Z,51.7
2017-09-23T00:20:24.890Z,51.8
2017-09-23T00:21:26.327Z,51.8
2017-09-23T00:22:27.432Z,51.6
2017-09-23T00:23:29.225Z,51.8
2017-09-23T00:24:30.348Z,51.8
2017-09-23T00:25:31.788Z,51.7
2017-09-23T00:26:33.582Z,51.8
2017-09-23T00:27:34.685Z,51.9
2017-09-23T00:28:36.812Z,51.8
2017-09-23T00:29:38.584Z,52.2
2017-09-23T00:30:39.690Z,51.7
2017-09-23T00:31:41.818Z,51.8
2017-09-23T00:32:43.946Z,51.6
2017-09-23T00:33:45.738Z,51.7
2017-09-23T00:34:47.196Z,52.2
2017-09-23T00:35:48.983Z,51.8
2017-09-23T00:36:50.439Z,51.7
2017-09-23T00:37:52.235Z,51.8
2017-09-23T00:38:54.363Z,51.7
2017-09-23T00:39:55.819Z,51.8
2017-09-23T00:40:57.609Z,52.2
2017-09-23T00:41:59.403Z,51.8
2017-09-23T00:43:00.840Z,51.7
2017-09-23T00:44:02.633Z,51.6
2017-09-23T00:45:04.427Z,51.8
2017-09-23T00:46:05.882Z,51.7
2017-09-23T00:47:08.012Z,51.7
2017-09-23T00:48:09.469Z,51.7
2017-09-23T00:49:11.270Z,52.2
2017-09-23T00:50:13.059Z,51.7
2017-09-23T00:51:15.190Z,51.6
2017-09-23T00:52:16.981Z,51.7
2017-09-23T00:53:18.773Z,52
2017-09-23T00:54:20.900Z,51.9
2017-09-23T00:55:22.669Z,51.7
2017-09-23T00:56:24.439Z,51.7
2017-09-23T00:57:25.901Z,51.8
2017-09-23T00:58:27.360Z,51.8
2017-09-23T00:59:29.134Z,51.8
2017-09-23T01:00:31.260Z,52.2
2017-09-23T01:01:32.700Z,51.7
2017-09-23T01:02:34.136Z,51.8
2017-09-23T01:03:35.926Z,51.8
2017-09-23T01:04:37.428Z,51.7
2017-09-23T01:05:39.198Z,51.7
2017-09-23T01:06:41.327Z,51.8
2017-09-23T01:07:43.457Z,51.8
2017-09-23T01:08:44.912Z,51.8
2017-09-23T01:09:46.353Z,52.1
2017-09-23T01:10:47.814Z,51.7
2017-09-23T01:11:49.606Z,52.2
2017-09-23T01:12:51.732Z,51.8
2017-09-23T01:13:53.504Z,51.8
2017-09-23T01:14:55.634Z,51.9
2017-09-23T01:15:57.073Z,51.6
2017-09-23T01:16:58.868Z,51.7
2017-09-23T01:18:00.996Z,52.1
2017-09-23T01:19:02.792Z,51.7
2017-09-23T01:20:04.921Z,51.7
2017-09-23T01:21:06.696Z,51.5
2017-09-23T01:22:08.825Z,51.7
2017-09-23T01:23:10.281Z,51.7
2017-09-23T01:24:11.379Z,52.1
2017-09-23T01:25:12.481Z,51.6
2017-09-23T01:26:14.276Z,51.7
2017-09-23T01:27:16.067Z,52
2017-09-23T01:28:17.861Z,51.8
2017-09-23T01:29:19.634Z,51.7
2017-09-23T01:30:21.069Z,52.2
2017-09-23T01:31:22.528Z,51.7
2017-09-23T01:32:24.657Z,51.6
2017-09-23T01:33:26.786Z,52.1
2017-09-23T01:34:28.582Z,51.7
2017-09-23T01:35:30.354Z,52.1
2017-09-23T01:36:32.149Z,51.6
2017-09-23T01:37:33.942Z,51.7
2017-09-23T01:38:35.737Z,51.9
2017-09-23T01:39:37.194Z,52.1
2017-09-23T01:40:39.054Z,51.5
2017-09-23T01:41:40.850Z,52.1
2017-09-23T01:42:42.975Z,51.8
2017-09-23T01:43:44.412Z,51.7
2017-09-23T01:44:45.522Z,51.7
2017-09-23T01:45:46.633Z,51.8
2017-09-23T01:46:48.831Z,52.1
2017-09-23T01:47:50.269Z,52.2
2017-09-23T01:48:51.368Z,51.7
2017-09-23T01:49:53.496Z,51.6
2017-09-23T01:50:54.932Z,51.9
2017-09-23T01:51:55.699Z,51.8
2017-09-23T01:52:57.826Z,52.2
2017-09-23T01:53:59.598Z,51.8
2017-09-23T01:55:01.733Z,51.8
2017-09-23T01:56:03.531Z,51.7
2017-09-23T01:57:05.316Z,51.6
2017-09-23T01:58:06.772Z,52
2017-09-23T01:59:08.569Z,51.7
2017-09-23T02:00:10.697Z,51.7
2017-09-23T02:01:12.505Z,52.3
2017-09-23T02:02:14.632Z,52.1
2017-09-23T02:03:16.093Z,51.8
2017-09-23T02:04:17.884Z,51.6
2017-09-23T02:05:20.015Z,51.8
2017-09-23T02:06:21.811Z,52.2
2017-09-23T02:07:23.602Z,51.8
2017-09-23T02:08:25.731Z,51.6
2017-09-23T02:09:27.524Z,51.8
2017-09-23T02:10:28.959Z,51.8
2017-09-23T02:11:31.085Z,51.6
2017-09-23T02:12:32.524Z,51.8
2017-09-23T02:13:34.654Z,51.6
2017-09-23T02:14:36.780Z,51.7
2017-09-23T02:15:38.219Z,51.7
2017-09-23T02:16:40.347Z,51.7
2017-09-23T02:17:41.782Z,51.8
2017-09-23T02:18:43.574Z,51.8
2017-09-23T02:19:45.010Z,51.8
2017-09-23T02:20:46.447Z,51.9
2017-09-23T02:21:48.577Z,52.1
2017-09-23T02:22:50.701Z,51.7
2017-09-23T02:23:52.159Z,51.8
2017-09-23T02:24:53.931Z,51.6
2017-09-23T02:25:55.703Z,51.7
2017-09-23T02:26:57.498Z,51.8
2017-09-23T02:27:59.628Z,51.6
2017-09-23T02:29:01.447Z,51.8
2017-09-23T02:30:03.244Z,51.7
2017-09-23T02:31:05.038Z,51.8
2017-09-23T02:32:06.831Z,51.8
2017-09-23T02:33:08.622Z,52
2017-09-23T02:34:10.414Z,51.8
2017-09-23T02:35:12.209Z,51.8
2017-09-23T02:36:13.669Z,51.8
2017-09-23T02:37:15.798Z,51.8
2017-09-23T02:38:17.591Z,51.8
2017-09-23T02:39:19.384Z,52.2
2017-09-23T02:40:21.513Z,52.1
2017-09-23T02:41:22.632Z,51.6
2017-09-23T02:42:24.433Z,52.2
2017-09-23T02:43:25.550Z,51.8
2017-09-23T02:44:27.342Z,51.8
2017-09-23T02:45:29.471Z,51.8
2017-09-23T02:46:31.596Z,51.8
2017-09-23T02:47:33.036Z,51.8
2017-09-23T02:48:34.824Z,51.6
2017-09-23T02:49:36.618Z,51.6
2017-09-23T02:50:37.721Z,52.1
2017-09-23T02:51:39.513Z,51.8
2017-09-23T02:52:41.305Z,51.8
2017-09-23T02:53:42.742Z,52.1
2017-09-23T02:54:44.868Z,51.6
2017-09-23T02:55:45.991Z,52.2
2017-09-23T02:56:47.449Z,51.7
2017-09-23T02:57:49.577Z,51.8
2017-09-23T02:58:51.013Z,51.8
2017-09-23T02:59:52.804Z,51.8
2017-09-23T03:00:54.597Z,51.9
2017-09-23T03:01:56.371Z,51.9
2017-09-23T03:02:58.497Z,51.8
2017-09-23T03:04:00.628Z,51.8
2017-09-23T03:05:02.755Z,52.1
2017-09-23T03:06:04.884Z,51.8
2017-09-23T03:07:07.011Z,52
2017-09-23T03:08:09.137Z,51.9
2017-09-23T03:09:10.598Z,51.8
2017-09-23T03:10:12.395Z,52
2017-09-23T03:11:14.523Z,51.8
2017-09-23T03:12:16.650Z,52.1
2017-09-23T03:13:18.442Z,51.9
2017-09-23T03:14:19.906Z,51.6
2017-09-23T03:15:21.031Z,51.9
2017-09-23T03:16:23.162Z,51.8
2017-09-23T03:17:24.603Z,51.8
2017-09-23T03:18:26.398Z,51.6
2017-09-23T03:19:28.526Z,51.8
2017-09-23T03:20:30.653Z,51.7
2017-09-23T03:21:32.779Z,51.8
2017-09-23T03:22:34.906Z,51.7
2017-09-23T03:23:36.680Z,51.7
2017-09-23T03:24:38.844Z,51.8
2017-09-23T03:25:40.284Z,51.6
2017-09-23T03:26:42.065Z,51.7
2017-09-23T03:27:43.166Z,51.8
2017-09-23T03:28:45.293Z,51.7
2017-09-23T03:29:47.086Z,51.9
2017-09-23T03:30:48.878Z,51.8
2017-09-23T03:31:51.010Z,52.2
2017-09-23T03:32:52.443Z,51.8
2017-09-23T03:33:54.215Z,51.8
2017-09-23T03:34:56.343Z,52.2
2017-09-23T03:35:57.108Z,51.9
2017-09-23T03:36:58.903Z,51.7
2017-09-23T03:38:01.030Z,51.8
2017-09-23T03:39:02.823Z,51.6
2017-09-23T03:40:04.616Z,52.1
2017-09-23T03:41:06.747Z,51.9
2017-09-23T03:42:08.520Z,51.8
2017-09-23T03:43:10.649Z,51.9
2017-09-23T03:44:12.442Z,51.6
2017-09-23T03:45:13.949Z,52.2
2017-09-23T03:46:16.081Z,51.9
2017-09-23T03:47:17.852Z,51.7
2017-09-23T03:48:19.312Z,51.7
2017-09-23T03:49:21.104Z,51.7
2017-09-23T03:50:22.211Z,51.8
2017-09-23T03:51:23.999Z,51.7
2017-09-23T03:52:25.458Z,51.8
2017-09-23T03:53:27.288Z,51.5
2017-09-23T03:54:28.749Z,52
2017-09-23T03:55:30.885Z,51.8
2017-09-23T03:56:32.682Z,51.7
2017-09-23T03:57:33.795Z,51.8
2017-09-23T03:58:35.233Z,51.8
2017-09-23T03:59:37.024Z,52.1
2017-09-23T04:00:38.198Z,51.7
2017-09-23T04:01:39.304Z,51.6
2017-09-23T04:02:40.429Z,51.7
2017-09-23T04:03:42.559Z,51.8
2017-09-23T04:04:44.352Z,51.8
2017-09-23T04:05:46.211Z,51.8
2017-09-23T04:06:48.355Z,52.1
2017-09-23T04:07:49.816Z,51.7
2017-09-23T04:08:51.277Z,51.8
2017-09-23T04:09:53.050Z,51.9
2017-09-23T04:10:54.509Z,51.7
2017-09-23T04:11:56.302Z,51.6
2017-09-23T04:12:58.098Z,51.8
2017-09-23T04:14:00.226Z,51.5
2017-09-23T04:15:01.662Z,51.8
2017-09-23T04:16:03.789Z,51.6
2017-09-23T04:17:05.579Z,51.8
2017-09-23T04:18:07.706Z,51.6
2017-09-23T04:19:09.836Z,52.1
2017-09-23T04:20:11.633Z,51.6
2017-09-23T04:21:13.775Z,51.8
2017-09-23T04:22:15.900Z,51.7
2017-09-23T04:23:18.029Z,51.9
2017-09-23T04:24:19.488Z,51.8
2017-09-23T04:25:20.931Z,52.1
2017-09-23T04:26:22.392Z,51.8
2017-09-23T04:27:24.182Z,51.8
2017-09-23T04:28:25.973Z,52.2
2017-09-23T04:29:27.494Z,51.7
2017-09-23T04:30:29.290Z,51.7
2017-09-23T04:31:31.425Z,52.3
2017-09-23T04:32:33.216Z,52
2017-09-23T04:33:35.006Z,51.8
2017-09-23T04:34:36.127Z,52.1
2017-09-23T04:35:37.920Z,51.8
2017-09-23T04:36:39.712Z,51.6
2017-09-23T04:37:41.146Z,51.6
2017-09-23T04:38:42.252Z,51.7
2017-09-23T04:39:44.377Z,51.7
2017-09-23T04:40:45.816Z,51.7
2017-09-23T04:41:47.965Z,51.8
2017-09-23T04:42:49.070Z,51.6
2017-09-23T04:43:50.512Z,51.8
2017-09-23T04:44:52.283Z,51.6
2017-09-23T04:45:53.382Z,51.7
2017-09-23T04:46:55.192Z,51.6
2017-09-23T04:47:57.318Z,51.7
2017-09-23T04:48:59.094Z,51.7
2017-09-23T04:50:01.221Z,51.7
2017-09-23T04:51:03.029Z,52.1
2017-09-23T04:52:05.141Z,52.2
2017-09-23T04:53:06.582Z,51.6
2017-09-23T04:54:08.014Z,51.6
2017-09-23T04:55:09.790Z,52.2
2017-09-23T04:56:11.250Z,52.1
2017-09-23T04:57:13.041Z,51.7
2017-09-23T04:58:14.868Z,52.3
2017-09-23T04:59:16.660Z,51.6
2017-09-23T05:00:18.803Z,51.6
2017-09-23T05:01:20.592Z,51.8
2017-09-23T05:02:22.030Z,51.8
2017-09-23T05:03:23.826Z,51.6
2017-09-23T05:04:25.622Z,51.6
2017-09-23T05:05:26.728Z,51.9
2017-09-23T05:06:28.162Z,51.7
2017-09-23T05:07:30.289Z,52
2017-09-23T05:08:32.088Z,51.6
2017-09-23T05:09:33.542Z,52.1
2017-09-23T05:10:35.317Z,51.7
2017-09-23T05:11:37.111Z,51.8
2017-09-23T05:12:38.565Z,51.7
2017-09-23T05:13:40.365Z,51.7
2017-09-23T05:14:42.155Z,51.7
2017-09-23T05:15:43.929Z,51.7
2017-09-23T05:16:46.057Z,51.7
2017-09-23T05:17:47.497Z,51.7
2017-09-23T05:18:49.730Z,52.1
2017-09-23T05:19:51.521Z,51.7
2017-09-23T05:20:52.977Z,52.2
2017-09-23T05:21:54.416Z,52.2
2017-09-23T05:22:55.876Z,51.9
2017-09-23T05:23:57.317Z,52.1
2017-09-23T05:24:58.449Z,51.6
2017-09-23T05:26:00.241Z,51.6
2017-09-23T05:27:02.032Z,51.7
2017-09-23T05:28:03.826Z,51.7
2017-09-23T05:29:05.600Z,51.6
2017-09-23T05:30:07.372Z,51.8
2017-09-23T05:31:08.806Z,51.7
2017-09-23T05:32:09.929Z,51.7
2017-09-23T05:33:11.035Z,51.7
2017-09-23T05:34:12.827Z,52.1
2017-09-23T05:35:14.265Z,51.8
2017-09-23T05:36:16.054Z,51.7
2017-09-23T05:37:18.182Z,51.7
2017-09-23T05:38:19.977Z,52
2017-09-23T05:39:22.102Z,52.1
2017-09-23T05:40:23.884Z,51.7
2017-09-23T05:41:26.033Z,51.8
2017-09-23T05:42:27.475Z,51.7
2017-09-23T05:43:29.244Z,51.7
2017-09-23T05:44:30.703Z,51.7
2017-09-23T05:45:32.829Z,52.1
2017-09-23T05:46:34.628Z,51.8
2017-09-23T05:47:36.422Z,51.8
2017-09-23T05:48:38.552Z,52.1
2017-09-23T05:49:39.653Z,51.7
2017-09-23T05:50:41.785Z,51.8
2017-09-23T05:51:43.229Z,51.8
2017-09-23T05:52:45.021Z,51.8
2017-09-23T05:53:46.143Z,51.7
2017-09-23T05:54:47.919Z,51.8
2017-09-23T05:55:49.710Z,51.8
2017-09-23T05:56:51.155Z,51.7
2017-09-23T05:57:52.948Z,52.1
2017-09-23T05:58:55.080Z,51.7
2017-09-23T05:59:56.534Z,51.7
2017-09-23T06:00:58.332Z,52
2017-09-23T06:01:59.777Z,51.7
2017-09-23T06:03:01.573Z,51.9
2017-09-23T06:04:03.706Z,51.7
2017-09-23T06:05:05.599Z,52.2
2017-09-23T06:06:07.061Z,52.1
2017-09-23T06:07:08.860Z,51.7
2017-09-23T06:08:10.631Z,51.7
2017-09-23T06:09:12.445Z,52.1
2017-09-23T06:10:13.885Z,51.7
2017-09-23T06:11:15.347Z,51.9
2017-09-23T06:12:17.117Z,52.1
2017-09-23T06:13:18.914Z,52.1
2017-09-23T06:14:20.717Z,52
2017-09-23T06:15:22.844Z,52.1
2017-09-23T06:16:23.953Z,51.7
2017-09-23T06:17:25.747Z,52
2017-09-23T06:18:27.545Z,51.7
2017-09-23T06:19:28.312Z,51.7
2017-09-23T06:20:30.109Z,51.7
2017-09-23T06:21:32.233Z,51.7
2017-09-23T06:22:33.707Z,51.7
2017-09-23T06:23:35.496Z,51.6
2017-09-23T06:24:37.288Z,51.8
2017-09-23T06:25:39.063Z,51.7
2017-09-23T06:26:41.194Z,51.7
2017-09-23T06:27:42.969Z,51.8
2017-09-23T06:28:45.126Z,51.7
2017-09-23T06:29:47.249Z,51.6
2017-09-23T06:30:49.042Z,51.8
2017-09-23T06:31:51.171Z,52
2017-09-23T06:32:52.968Z,51.7
2017-09-23T06:33:54.768Z,51.7
2017-09-23T06:34:56.891Z,51.6
2017-09-23T06:35:58.691Z,51.6
2017-09-23T06:37:00.818Z,51.7
2017-09-23T06:38:02.613Z,51.8
2017-09-23T06:39:03.718Z,51.8
2017-09-23T06:40:05.510Z,51.7
2017-09-23T06:41:06.639Z,51.8
2017-09-23T06:42:08.765Z,51.8
2017-09-23T06:43:10.223Z,51.6
2017-09-23T06:44:11.997Z,52
2017-09-23T06:45:13.434Z,51.8
2017-09-23T06:46:15.234Z,51.8
2017-09-23T06:47:17.008Z,51.6
2017-09-23T06:48:18.445Z,51.8
2017-09-23T06:49:19.884Z,51.8
2017-09-23T06:50:21.324Z,51.8
2017-09-23T06:51:23.117Z,51.6
2017-09-23T06:52:24.913Z,51.9
2017-09-23T06:53:27.042Z,52.3
2017-09-23T06:54:28.816Z,51.6
2017-09-23T06:55:30.589Z,51.7
2017-09-23T06:56:32.385Z,51.9
2017-09-23T06:57:34.157Z,51.8
2017-09-23T06:58:35.931Z,52
2017-09-23T06:59:37.393Z,51.6
2017-09-23T07:00:39.164Z,51.6
2017-09-23T07:01:40.959Z,51.9
2017-09-23T07:02:42.750Z,51.6
2017-09-23T07:03:44.213Z,51.9
2017-09-23T07:04:45.653Z,52
2017-09-23T07:05:47.091Z,51.7
2017-09-23T07:06:48.530Z,51.6
2017-09-23T07:07:49.986Z,51.9
2017-09-23T07:08:51.455Z,51.7
2017-09-23T07:09:53.249Z,51.7
2017-09-23T07:10:55.020Z,51.5
2017-09-23T07:11:56.811Z,51.7
2017-09-23T07:12:57.920Z,52.3
2017-09-23T07:13:59.717Z,51.7
2017-09-23T07:15:01.514Z,51.7
2017-09-23T07:16:03.283Z,51.5
2017-09-23T07:17:05.420Z,51.6
2017-09-23T07:18:06.862Z,51.6
2017-09-23T07:19:08.319Z,51.7
2017-09-23T07:20:10.115Z,51.7
2017-09-23T07:21:11.217Z,51.9
2017-09-23T07:22:13.346Z,51.7
2017-09-23T07:23:15.141Z,51.9
2017-09-23T07:24:17.275Z,52.3
2017-09-23T07:25:19.401Z,51.8
2017-09-23T07:26:21.530Z,51.9
2017-09-23T07:27:23.325Z,51.7
2017-09-23T07:28:25.127Z,51.9
2017-09-23T07:29:26.916Z,51.9
2017-09-23T07:30:28.374Z,51.9
2017-09-23T07:31:30.175Z,51.8
2017-09-23T07:32:31.954Z,51.6
2017-09-23T07:33:33.728Z,51.6
2017-09-23T07:34:35.164Z,51.7
2017-09-23T07:35:36.622Z,52
2017-09-23T07:36:38.073Z,51.6
2017-09-23T07:37:39.865Z,52
2017-09-23T07:38:41.994Z,51.8
2017-09-23T07:39:44.125Z,52
2017-09-23T07:40:45.915Z,51.7
2017-09-23T07:41:47.351Z,51.9
2017-09-23T07:42:49.485Z,51.5
2017-09-23T07:43:51.258Z,51.7
2017-09-23T07:44:52.383Z,51.8
2017-09-23T07:45:54.174Z,52.2
2017-09-23T07:46:55.949Z,51.9
2017-09-23T07:47:58.080Z,52.2
2017-09-23T07:48:59.517Z,51.9
2017-09-23T07:50:01.315Z,51.8
2017-09-23T07:51:02.772Z,51.9
2017-09-23T07:52:04.230Z,51.9
2017-09-23T07:53:05.689Z,51.9
2017-09-23T07:54:07.817Z,51.5
2017-09-23T07:55:09.612Z,51.5
2017-09-23T07:56:11.068Z,51.9
2017-09-23T07:57:13.199Z,51.7
2017-09-23T07:58:14.656Z,51.9
2017-09-23T07:59:16.455Z,51.8
2017-09-23T08:00:18.583Z,51.8
2017-09-23T08:01:20.359Z,51.7
2017-09-23T08:02:22.155Z,51.8
2017-09-23T08:03:23.619Z,51.7
2017-09-23T08:04:25.396Z,51.6
2017-09-23T08:05:27.190Z,51.6
2017-09-23T08:06:28.981Z,51.7
2017-09-23T08:07:30.417Z,51.9
2017-09-23T08:08:32.548Z,51.7
2017-09-23T08:09:34.341Z,51.5
2017-09-23T08:10:36.136Z,51.9
2017-09-23T08:11:38.266Z,51.3
2017-09-23T08:12:40.064Z,51.8
2017-09-23T08:13:41.854Z,51.6
2017-09-23T08:14:42.959Z,51.9
2017-09-23T08:15:44.758Z,51.6
2017-09-23T08:16:46.887Z,51.5
2017-09-23T08:17:48.688Z,51.7
2017-09-23T08:18:50.477Z,51.8
2017-09-23T08:19:51.934Z,51.4
2017-09-23T08:20:53.729Z,51.8
2017-09-23T08:21:55.191Z,51.3
2017-09-23T08:22:56.987Z,51.6
2017-09-23T08:23:58.446Z,51.7
2017-09-23T08:25:00.246Z,51.5
2017-09-23T08:26:02.039Z,51.7
2017-09-23T08:27:03.837Z,51.7
2017-09-23T08:28:05.277Z,51.6
2017-09-23T08:29:07.419Z,51.3
2017-09-23T08:30:09.196Z,51.7
2017-09-23T08:31:10.995Z,51.6
2017-09-23T08:32:12.431Z,51.5
2017-09-23T08:33:14.228Z,51.2
2017-09-23T08:34:16.018Z,51.6
2017-09-23T08:35:17.127Z,51.7
2017-09-23T08:36:18.589Z,51.7
2017-09-23T08:37:20.389Z,51.7
2017-09-23T08:38:22.565Z,51
2017-09-23T08:39:24.699Z,51.1
2017-09-23T08:40:26.469Z,51.1
2017-09-23T08:41:27.928Z,51.6
2017-09-23T08:42:29.724Z,51.5
2017-09-23T08:43:31.166Z,51.1
2017-09-23T08:44:32.292Z,51.1
2017-09-23T08:45:34.087Z,51.3
2017-09-23T08:46:35.882Z,51.4
2017-09-23T08:47:37.344Z,51.5
2017-09-23T08:48:39.474Z,51.2
2017-09-23T08:49:40.939Z,51
2017-09-23T08:50:42.738Z,51
2017-09-23T08:51:44.530Z,51.1
2017-09-23T08:52:46.330Z,51.2
2017-09-23T08:53:48.208Z,51.5
2017-09-23T08:54:50.342Z,51.3
2017-09-23T08:55:52.131Z,51.8
2017-09-23T08:56:53.925Z,51.3
2017-09-23T08:57:55.701Z,51.3
2017-09-23T08:58:57.144Z,51.5
2017-09-23T08:59:58.942Z,51.3
2017-09-23T09:01:00.738Z,51.3
2017-09-23T09:02:02.870Z,51.5
2017-09-23T09:03:04.308Z,51
2017-09-23T09:04:06.255Z,51.1
2017-09-23T09:05:07.716Z,51.8
2017-09-23T09:06:09.157Z,51.1
2017-09-23T09:07:10.612Z,51.4
2017-09-23T09:08:12.052Z,51.2
2017-09-23T09:09:13.849Z,51.2
2017-09-23T09:10:15.622Z,51.2
2017-09-23T09:11:17.416Z,51.1
2017-09-23T09:12:19.187Z,51.2
2017-09-23T09:13:20.986Z,51.5
2017-09-23T09:14:22.756Z,51.1
2017-09-23T09:15:24.224Z,51.2
2017-09-23T09:16:26.018Z,51.2
2017-09-23T09:17:27.819Z,51.1
2017-09-23T09:18:29.276Z,51.2
2017-09-23T09:19:30.868Z,51.4
2017-09-23T09:20:32.321Z,51
2017-09-23T09:21:34.459Z,50.6
2017-09-23T09:22:35.562Z,51
2017-09-23T09:23:37.691Z,50.9
2017-09-23T09:24:39.820Z,50.8
2017-09-23T09:25:41.595Z,51.2
2017-09-23T09:26:43.391Z,50.9
2017-09-23T09:27:45.185Z,51
2017-09-23T09:28:47.322Z,51
2017-09-23T09:29:48.777Z,50.9
2017-09-23T09:30:50.911Z,51.3
2017-09-23T09:31:52.683Z,51.2
2017-09-23T09:32:54.815Z,50.9
2017-09-23T09:33:56.610Z,51.2
2017-09-23T09:34:58.459Z,50.9
2017-09-23T09:35:59.920Z,50.8
2017-09-23T09:37:01.398Z,50.9
2017-09-23T09:38:03.183Z,51.1
2017-09-23T09:39:03.954Z,50.6
2017-09-23T09:40:04.725Z,50.9
2017-09-23T09:41:05.836Z,50.9
2017-09-23T09:42:07.629Z,50.7
2017-09-23T09:43:09.426Z,51.3
2017-09-23T09:44:10.889Z,50.9
2017-09-23T09:45:13.019Z,50.9
2017-09-23T09:46:15.146Z,51
2017-09-23T09:47:17.275Z,51.1
2017-09-23T09:48:19.071Z,51
2017-09-23T09:49:20.180Z,51
2017-09-23T09:50:20.947Z,51
2017-09-23T09:51:22.436Z,51
2017-09-23T09:52:24.571Z,51
2017-09-23T09:53:26.719Z,50.9
2017-09-23T09:54:28.517Z,50.9
2017-09-23T09:55:30.327Z,50.8
2017-09-23T09:56:32.108Z,50.8
2017-09-23T09:57:34.248Z,50.8
2017-09-23T09:58:36.037Z,50.7
2017-09-23T09:59:38.166Z,50.8
2017-09-23T10:00:40.300Z,51.1
2017-09-23T10:01:42.092Z,50.8
2017-09-23T10:02:43.553Z,50.6
2017-09-23T10:03:45.019Z,50.7
2017-09-23T10:04:46.787Z,50.9
2017-09-23T10:05:48.250Z,50.8
2017-09-23T10:06:49.371Z,50.8
2017-09-23T10:07:51.498Z,50.7
2017-09-23T10:08:52.941Z,50.9
2017-09-23T10:09:55.070Z,50.7
2017-09-23T10:10:56.540Z,50.9
2017-09-23T10:11:58.336Z,50.8
2017-09-23T10:12:59.443Z,50.6
2017-09-23T10:14:00.574Z,51
2017-09-23T10:15:02.014Z,51.1
2017-09-23T10:16:04.142Z,50.8
2017-09-23T10:17:05.937Z,50.7
2017-09-23T10:18:07.384Z,50.6
2017-09-23T10:19:09.512Z,50.5
2017-09-23T10:20:10.971Z,50.6
2017-09-23T10:21:12.409Z,50.6
2017-09-23T10:22:13.857Z,50.6
2017-09-23T10:23:15.718Z,50.9
2017-09-23T10:24:17.850Z,51
2017-09-23T10:25:19.641Z,50.5
2017-09-23T10:26:21.443Z,50.6
2017-09-23T10:27:22.906Z,50.6
2017-09-23T10:28:24.681Z,50.5
2017-09-23T10:29:26.115Z,50.9
2017-09-23T10:30:27.556Z,50.4
2017-09-23T10:31:29.016Z,50.8
2017-09-23T10:32:31.147Z,50.4
2017-09-23T10:33:32.920Z,50.7
2017-09-23T10:34:35.051Z,50.4
2017-09-23T10:35:36.845Z,50.7
2017-09-23T10:36:38.645Z,50.8
2017-09-23T10:37:40.077Z,50.6
2017-09-23T10:38:41.522Z,50.7
2017-09-23T10:39:43.318Z,50.5
2017-09-23T10:40:44.780Z,50.4
2017-09-23T10:41:46.912Z,50.6
2017-09-23T10:42:48.704Z,50.6
2017-09-23T10:43:50.503Z,50.5
2017-09-23T10:44:51.944Z,50.9
2017-09-23T10:45:53.748Z,50.6
2017-09-23T10:46:55.542Z,50.6
2017-09-23T10:47:57.021Z,50.6
2017-09-23T10:48:58.478Z,50.4
2017-09-23T10:49:59.924Z,50.4
2017-09-23T10:51:01.387Z,51
2017-09-23T10:52:02.855Z,50.4
2017-09-23T10:53:04.647Z,50.9
2017-09-23T10:54:06.440Z,50.4
2017-09-23T10:55:08.581Z,50.9
2017-09-23T10:56:10.713Z,50.9
2017-09-23T10:57:12.487Z,50.2
2017-09-23T10:58:14.618Z,50.4
2017-09-23T10:59:16.059Z,50.3
2017-09-23T11:00:17.501Z,50.2
2017-09-23T11:01:19.295Z,50.3
2017-09-23T11:02:21.103Z,50.4
2017-09-23T11:03:22.538Z,50.3
2017-09-23T11:04:24.362Z,50.2
2017-09-23T11:05:26.505Z,50.4
2017-09-23T11:06:28.630Z,50.3
2017-09-23T11:07:30.781Z,50.6
2017-09-23T11:08:32.217Z,50.5
2017-09-23T11:09:34.011Z,50.5
2017-09-23T11:10:35.478Z,50.2
2017-09-23T11:11:37.248Z,50.7
2017-09-23T11:12:39.377Z,50.6
2017-09-23T11:13:41.174Z,50.6
2017-09-23T11:14:43.303Z,50.5
2017-09-23T11:15:45.098Z,50.9
2017-09-23T11:16:46.224Z,50.5
2017-09-23T11:17:48.021Z,50.4
2017-09-23T11:18:49.820Z,50.5
2017-09-23T11:19:51.953Z,50.9
2017-09-23T11:20:53.746Z,50.4
2017-09-23T11:21:55.191Z,50.2
2017-09-23T11:22:56.648Z,50.7
2017-09-23T11:23:58.443Z,50.8
2017-09-23T11:25:00.238Z,50.7
2017-09-23T11:26:01.365Z,50.9
2017-09-23T11:27:03.159Z,50.9
2017-09-23T11:28:04.297Z,50.9
2017-09-23T11:29:06.092Z,50.5
2017-09-23T11:30:07.881Z,50.9
2017-09-23T11:31:10.018Z,50.5
2017-09-23T11:32:11.453Z,50.6
2017-09-23T11:33:13.248Z,50.4
2017-09-23T11:34:15.374Z,50.3
2017-09-23T11:35:17.507Z,50.4
2017-09-23T11:36:18.970Z,50.4
2017-09-23T11:37:20.471Z,50.4
2017-09-23T11:38:22.652Z,50.4
2017-09-23T11:39:24.091Z,50.7
2017-09-23T11:40:25.887Z,50.4
2017-09-23T11:41:26.989Z,50.4
2017-09-23T11:42:28.766Z,50.5
2017-09-23T11:43:30.562Z,50.8
2017-09-23T11:44:31.672Z,50.5
2017-09-23T11:45:33.443Z,50.9
2017-09-23T11:46:35.233Z,50.4
2017-09-23T11:47:36.682Z,50.5
2017-09-23T11:48:38.119Z,50.5
2017-09-23T11:49:39.921Z,50.9
2017-09-23T11:50:41.379Z,50.4
2017-09-23T11:51:42.817Z,50.5
2017-09-23T11:52:44.255Z,50.4
2017-09-23T11:53:45.692Z,50.3
2017-09-23T11:54:47.825Z,50.5
2017-09-23T11:55:49.622Z,50.3
2017-09-23T11:56:50.724Z,50.4
2017-09-23T11:57:52.853Z,50.6
2017-09-23T11:58:54.751Z,50.2
2017-09-23T11:59:55.857Z,50.5
2017-09-23T12:00:57.630Z,50.7
2017-09-23T12:01:59.428Z,50.6
2017-09-23T12:03:01.224Z,50.8
2017-09-23T12:04:03.004Z,50.3
2017-09-23T12:05:04.450Z,50.4
2017-09-23T12:06:05.557Z,50.3
2017-09-23T12:07:07.690Z,50.6
2017-09-23T12:08:09.133Z,50.5
2017-09-23T12:09:10.570Z,50.5
2017-09-23T12:10:11.692Z,50.1
2017-09-23T12:11:13.149Z,50.1
2017-09-23T12:12:14.614Z,50.1
2017-09-23T12:13:16.075Z,50.4
2017-09-23T12:14:17.873Z,50.4
2017-09-23T12:15:19.334Z,50.1
2017-09-23T12:16:21.460Z,50.2
2017-09-23T12:17:23.257Z,50.2
2017-09-23T12:18:25.060Z,50.5
2017-09-23T12:19:26.310Z,50.4
2017-09-23T12:20:28.442Z,50.2
2017-09-23T12:21:29.904Z,50.3
2017-09-23T12:22:31.346Z,50.2
2017-09-23T12:23:33.142Z,50.4
2017-09-23T12:24:35.036Z,50.7
2017-09-23T12:25:36.478Z,50.1
2017-09-23T12:26:38.252Z,50.2
2017-09-23T12:27:40.403Z,50.4
2017-09-23T12:28:42.179Z,50.4
2017-09-23T12:29:43.672Z,50.2
2017-09-23T12:30:45.464Z,50.3
2017-09-23T12:31:46.902Z,50.2
2017-09-23T12:32:49.038Z,50.3
2017-09-23T12:33:50.830Z,50.1
2017-09-23T12:34:52.678Z,50.3
2017-09-23T12:35:54.808Z,50.3
2017-09-23T12:36:56.941Z,50.1
2017-09-23T12:37:59.072Z,50
2017-09-23T12:39:00.520Z,50.3
2017-09-23T12:40:02.650Z,50
2017-09-23T12:41:04.450Z,50.2
2017-09-23T12:42:06.247Z,50.2
2017-09-23T12:43:08.380Z,50.3
2017-09-23T12:44:10.175Z,50.3
2017-09-23T12:45:11.303Z,50.3
2017-09-23T12:46:13.076Z,50.3
2017-09-23T12:47:15.210Z,50.1
2017-09-23T12:48:16.320Z,50.3
2017-09-23T12:49:18.113Z,50.5
2017-09-23T12:50:19.910Z,50.3
2017-09-23T12:51:21.366Z,50.5
2017-09-23T12:52:22.827Z,50.3
2017-09-23T12:53:24.960Z,50.2
2017-09-23T12:54:26.400Z,50.3
2017-09-23T12:55:27.505Z,50.3
2017-09-23T12:56:29.638Z,50.4
2017-09-23T12:57:31.765Z,50.3
2017-09-23T12:58:33.204Z,50.3
2017-09-23T12:59:34.329Z,50.3
2017-09-23T13:00:36.124Z,50.3
2017-09-23T13:01:37.900Z,50.4
2017-09-23T13:02:39.695Z,50.5
2017-09-23T13:03:41.137Z,50.1
2017-09-23T13:04:43.266Z,50.4
2017-09-23T13:05:45.395Z,50.5
2017-09-23T13:06:46.836Z,50.2
2017-09-23T13:07:48.632Z,50.2
2017-09-23T13:08:50.072Z,50.7
2017-09-23T13:09:52.212Z,50.7
2017-09-23T13:10:54.380Z,50.3
2017-09-23T13:11:56.176Z,50.5
2017-09-23T13:12:57.638Z,50.6
2017-09-23T13:13:59.078Z,50.5
2017-09-23T13:15:00.540Z,50.1
2017-09-23T13:16:02.002Z,50.3
2017-09-23T13:17:03.798Z,50.5
2017-09-23T13:18:04.566Z,50.4
2017-09-23T13:19:06.007Z,50.6
2017-09-23T13:20:07.801Z,50.5
2017-09-23T13:21:09.935Z,50.1
2017-09-23T13:22:12.064Z,50.4
2017-09-23T13:23:14.194Z,50.4
2017-09-23T13:24:15.967Z,50.4
2017-09-23T13:25:17.432Z,50.4
2017-09-23T13:26:19.230Z,50.4
2017-09-23T13:27:20.698Z,50
2017-09-23T13:28:22.135Z,50.5
2017-09-23T13:29:23.931Z,50.2
2017-09-23T13:30:25.708Z,50.3
2017-09-23T13:31:26.815Z,50.3
2017-09-23T13:32:28.607Z,50.2
2017-09-23T13:33:29.738Z,50.4
2017-09-23T13:34:31.535Z,50.2
2017-09-23T13:35:33.332Z,50.6
2017-09-23T13:36:34.791Z,50.3
2017-09-23T13:37:36.597Z,50.3
2017-09-23T13:38:38.058Z,50.3
2017-09-23T13:39:39.500Z,50.4
2017-09-23T13:40:41.324Z,50.2
2017-09-23T13:41:43.125Z,50.2
2017-09-23T13:42:44.591Z,50.5
2017-09-23T13:43:45.689Z,50.3
2017-09-23T13:44:47.153Z,50.4
2017-09-23T13:45:48.281Z,50.3